Time;durP1;ratioP1;P1;durP2;ratioP2;P2;SDS_P1;SDS_P2;PMS_P1;PMS_P2;Temp;Humidity;BMP_temperature;BMP_pressure;BME280_temperature;BME280_humidity;BME280_pressure;Samples;Min_cycle;Max_cycle;Signal;HPM_P1;HPM_P2
2023/12/19 00:00:23;;;;;;;6.72;2.67;;;3.40;99.90;;;;;;5019192;28;20107;-62
2023/12/19 00:02:48;;;;;;;5.43;2.58;;;3.40;99.90;;;;;;5036565;28;20029;-62
2023/12/19 00:05:14;;;;;;;8.85;3.03;;;3.40;99.90;;;;;;5036734;28;20037;-63
2023/12/19 00:07:40;;;;;;;8.10;2.63;;;3.30;99.90;;;;;;5036411;28;20021;-62
2023/12/19 00:10:07;;;;;;;7.18;3.35;;;3.30;99.90;;;;;;5036378;28;20033;-62
2023/12/19 00:12:32;;;;;;;7.40;3.17;;;3.30;99.90;;;;;;5036552;28;20564;-62
2023/12/19 00:14:58;;;;;;;6.45;2.88;;;3.30;99.90;;;;;;5018488;28;20117;-62
2023/12/19 00:17:23;;;;;;;9.00;3.17;;;3.20;99.90;;;;;;5036233;28;20029;-62
2023/12/19 00:19:49;;;;;;;7.25;2.90;;;3.20;99.90;;;;;;5036190;28;20032;-62
2023/12/19 00:22:15;;;;;;;5.53;2.38;;;3.30;99.90;;;;;;5036316;28;20449;-62
2023/12/19 00:24:40;;;;;;;4.82;2.10;;;3.20;99.90;;;;;;5036121;28;20025;-62
2023/12/19 00:27:06;;;;;;;6.47;2.60;;;3.10;99.90;;;;;;5035838;28;20033;-62
2023/12/19 00:29:31;;;;;;;5.90;2.15;;;3.30;99.90;;;;;;5019041;28;20029;-62
2023/12/19 00:31:57;;;;;;;5.68;1.90;;;3.10;99.90;;;;;;5036094;28;20044;-62
2023/12/19 00:34:23;;;;;;;4.20;1.80;;;3.10;99.90;;;;;;5036373;28;20474;-62
2023/12/19 00:36:48;;;;;;;4.97;1.80;;;3.10;99.90;;;;;;5035883;28;20032;-62
2023/12/19 00:39:14;;;;;;;3.97;2.05;;;3.10;99.90;;;;;;5036396;28;20030;-63
2023/12/19 00:41:40;;;;;;;5.28;1.38;;;3.30;99.90;;;;;;5018566;28;20549;-62
2023/12/19 00:44:05;;;;;;;5.70;2.22;;;3.20;99.90;;;;;;5018052;28;20021;-62
2023/12/19 00:46:31;;;;;;;5.20;1.63;;;3.30;99.90;;;;;;5035775;28;20025;-62
2023/12/19 00:48:56;;;;;;;3.50;1.55;;;3.20;99.90;;;;;;5035038;28;20079;-62
2023/12/19 00:51:22;;;;;;;6.45;1.58;;;3.20;99.90;;;;;;5035473;28;20053;-62
2023/12/19 00:53:48;;;;;;;4.80;2.08;;;3.30;99.90;;;;;;5035632;28;20463;-62
2023/12/19 00:56:13;;;;;;;4.90;1.52;;;3.30;99.90;;;;;;5017912;28;20033;-62
2023/12/19 00:58:39;;;;;;;3.28;1.55;;;3.10;99.90;;;;;;5035778;28;20032;-62
2023/12/19 01:01:08;;;;;;;3.38;1.80;;;3.10;99.90;;;;;;5017555;28;20471;-62
2023/12/19 01:03:34;;;;;;;3.40;1.58;;;3.10;99.90;;;;;;5035552;28;20425;-62
2023/12/19 01:06:02;;;;;;;2.70;1.38;;;3.20;99.90;;;;;;5035179;28;20057;-62
2023/12/19 01:08:28;;;;;;;2.90;1.65;;;3.10;99.90;;;;;;5017600;28;20026;-62
2023/12/19 01:10:54;;;;;;;3.40;1.60;;;3.10;99.90;;;;;;5017511;28;20033;-63
2023/12/19 01:13:19;;;;;;;3.50;1.40;;;3.10;99.90;;;;;;5017490;28;20080;-62
2023/12/19 01:15:45;;;;;;;9.10;3.28;;;3.10;99.90;;;;;;5036042;28;20038;-65
2023/12/19 01:18:11;;;;;;;6.20;1.90;;;3.10;99.90;;;;;;5019445;28;20112;-63
2023/12/19 01:20:36;;;;;;;2.38;1.35;;;3.10;99.90;;;;;;5037189;28;20044;-65
2023/12/19 01:23:02;;;;;;;3.10;2.00;;;3.10;99.90;;;;;;5036495;28;20033;-63
2023/12/19 01:25:28;;;;;;;10.88;2.58;;;3.10;99.90;;;;;;5017923;28;20030;-63
2023/12/19 01:27:53;;;;;;;3.85;1.33;;;3.00;99.90;;;;;;5035178;28;20076;-62
2023/12/19 01:30:19;;;;;;;4.53;1.27;;;3.00;99.90;;;;;;5034926;28;20083;-62
2023/12/19 01:32:45;;;;;;;4.18;1.80;;;3.00;99.90;;;;;;5034601;28;20449;-62
2023/12/19 01:35:10;;;;;;;5.75;1.80;;;3.30;99.90;;;;;;5017050;28;20034;-62
2023/12/19 01:37:36;;;;;;;3.58;1.63;;;2.90;99.90;;;;;;5034952;28;20033;-62
2023/12/19 01:40:02;;;;;;;3.20;1.55;;;2.90;99.90;;;;;;5035039;28;20032;-62
2023/12/19 01:42:27;;;;;;;2.30;1.30;;;2.80;99.90;;;;;;5016872;28;20120;-62
2023/12/19 01:45:13;;;;;;;3.28;1.77;;;2.70;99.90;;;;;;5034635;28;20041;-62
2023/12/19 01:47:43;;;;;;;4.43;2.38;;;2.70;99.90;;;;;;5016729;28;20034;-62
2023/12/19 01:50:10;;;;;;;6.43;1.95;;;2.60;99.90;;;;;;5034523;28;20029;-62
2023/12/19 01:52:39;;;;;;;5.80;1.80;;;2.60;99.90;;;;;;5034992;28;20096;-62
2023/12/19 01:55:06;;;;;;;6.93;1.75;;;2.50;99.90;;;;;;5034431;28;20040;-62
2023/12/19 01:57:33;;;;;;;2.70;1.38;;;2.50;99.90;;;;;;5016748;28;20037;-62
2023/12/19 01:59:59;;;;;;;1.83;1.10;;;2.40;99.90;;;;;;5034425;28;20025;-62
2023/12/19 02:02:25;;;;;;;2.22;1.30;;;2.50;99.90;;;;;;5017309;28;20159;-62
2023/12/19 02:04:53;;;;;;;5.07;2.10;;;2.40;99.90;;;;;;5016535;28;20037;-62
2023/12/19 02:07:18;;;;;;;2.15;1.38;;;2.40;99.90;;;;;;5033946;28;20025;-62
2023/12/19 02:09:44;;;;;;;5.10;1.30;;;2.40;99.90;;;;;;5016448;28;20056;-62
2023/12/19 02:12:09;;;;;;;2.35;1.50;;;2.40;99.90;;;;;;5034051;28;20025;-62
2023/12/19 02:14:35;;;;;;;2.42;1.10;;;2.30;99.90;;;;;;5034111;28;20025;-62
2023/12/19 02:17:01;;;;;;;1.40;1.05;;;2.30;99.90;;;;;;5033787;28;20028;-62
2023/12/19 02:19:26;;;;;;;2.95;1.35;;;2.30;99.90;;;;;;5034022;28;20025;-62
2023/12/19 02:21:52;;;;;;;3.08;0.98;;;2.20;99.90;;;;;;5016704;28;20096;-62
2023/12/19 02:24:17;;;;;;;3.45;1.42;;;2.20;99.90;;;;;;5033956;28;20076;-63
2023/12/19 02:26:43;;;;;;;3.50;1.40;;;2.20;99.90;;;;;;5034123;28;20030;-62
2023/12/19 02:29:09;;;;;;;3.28;1.65;;;2.10;99.90;;;;;;5033905;28;20120;-62
2023/12/19 02:31:34;;;;;;;5.35;1.83;;;2.00;99.90;;;;;;5033515;28;20383;-62
2023/12/19 02:34:00;;;;;;;3.42;1.30;;;2.00;99.90;;;;;;5033819;28;20022;-62
2023/12/19 02:36:25;;;;;;;3.45;1.23;;;2.10;99.90;;;;;;5034087;28;20044;-62
2023/12/19 02:38:51;;;;;;;2.63;1.30;;;2.10;99.90;;;;;;5033772;28;20021;-63
2023/12/19 02:41:17;;;;;;;2.45;1.00;;;1.90;99.90;;;;;;5015772;28;20141;-62
2023/12/19 02:43:42;;;;;;;4.47;1.10;;;1.90;99.90;;;;;;5033502;28;20030;-62
2023/12/19 02:46:08;;;;;;;2.72;1.50;;;1.80;99.90;;;;;;5033498;28;20032;-62
2023/12/19 02:48:33;;;;;;;2.72;1.45;;;2.00;99.90;;;;;;5033743;28;20111;-62
2023/12/19 02:50:59;;;;;;;4.25;0.93;;;1.80;99.90;;;;;;5015786;28;20481;-62
2023/12/19 02:53:27;;;;;;;4.13;1.40;;;1.80;99.90;;;;;;5033406;28;20494;-62
2023/12/19 02:55:53;;;;;;;1.48;0.90;;;1.80;99.90;;;;;;5033673;28;20026;-62
2023/12/19 02:58:18;;;;;;;5.00;1.10;;;1.80;99.90;;;;;;5033850;28;20034;-62
2023/12/19 03:00:44;;;;;;;2.05;0.93;;;1.70;99.90;;;;;;5033872;28;20029;-63
2023/12/19 03:03:10;;;;;;;3.00;1.30;;;1.70;99.90;;;;;;5015888;28;20040;-62
2023/12/19 03:05:35;;;;;;;8.73;1.80;;;1.70;99.90;;;;;;5015882;28;20025;-62
2023/12/19 03:08:01;;;;;;;7.72;1.60;;;1.70;99.90;;;;;;5033729;28;20033;-62
2023/12/19 03:10:27;;;;;;;3.38;1.42;;;1.70;99.90;;;;;;5016201;28;20033;-62
2023/12/19 03:12:52;;;;;;;3.55;2.15;;;1.70;99.90;;;;;;5034843;28;20037;-62
2023/12/19 03:15:18;;;;;;;5.72;1.63;;;1.70;99.90;;;;;;5019728;28;20115;-62
2023/12/19 03:17:43;;;;;;;5.28;1.65;;;1.70;99.90;;;;;;5019912;28;20102;-62
2023/12/19 03:20:09;;;;;;;3.00;1.50;;;1.80;99.90;;;;;;5037103;28;20025;-62
2023/12/19 03:22:35;;;;;;;4.30;1.65;;;1.80;99.90;;;;;;5037337;28;20525;-62
2023/12/19 03:25:02;;;;;;;1.42;1.27;;;1.70;99.90;;;;;;5036957;28;20426;-62
2023/12/19 03:27:27;;;;;;;2.90;1.80;;;1.70;99.90;;;;;;5019541;28;20079;-62
2023/12/19 03:29:53;;;;;;;2.85;1.48;;;1.60;99.90;;;;;;5019455;28;20027;-62
2023/12/19 03:32:19;;;;;;;4.90;1.10;;;1.50;99.90;;;;;;5036779;28;20038;-62
2023/12/19 03:34:44;;;;;;;3.30;1.23;;;1.50;99.90;;;;;;5019316;28;20455;-63
2023/12/19 03:37:10;;;;;;;2.42;1.42;;;1.40;99.90;;;;;;5037301;28;20025;-62
2023/12/19 03:39:36;;;;;;;2.20;1.48;;;1.40;99.90;;;;;;5037038;28;20033;-62
2023/12/19 03:42:01;;;;;;;3.70;1.70;;;1.30;99.90;;;;;;5036949;28;20479;-62
2023/12/19 03:44:27;;;;;;;4.68;1.17;;;1.30;99.90;;;;;;5019169;28;20025;-62
2023/12/19 03:46:52;;;;;;;4.22;1.98;;;1.30;99.90;;;;;;5037080;28;20074;-62
2023/12/19 03:49:18;;;;;;;1.95;0.90;;;1.30;99.90;;;;;;5036656;28;20102;-63
2023/12/19 03:51:44;;;;;;;5.68;1.45;;;1.20;99.90;;;;;;5015458;28;20056;-62
2023/12/19 03:54:09;;;;;;;2.78;1.00;;;1.30;99.90;;;;;;5015688;28;20026;-62
2023/12/19 03:56:35;;;;;;;4.07;1.27;;;1.30;99.90;;;;;;5015998;28;20160;-62
2023/12/19 03:59:00;;;;;;;1.90;1.17;;;1.50;99.90;;;;;;5017291;28;20026;-62
2023/12/19 04:01:26;;;;;;;1.33;0.82;;;1.60;99.90;;;;;;5016766;28;20116;-62
2023/12/19 04:03:52;;;;;;;2.72;1.10;;;1.70;99.90;;;;;;5015495;28;20029;-62
2023/12/19 04:06:18;;;;;;;4.82;1.05;;;1.80;99.90;;;;;;5015973;28;20037;-63
2023/12/19 04:08:43;;;;;;;3.17;1.55;;;1.80;99.90;;;;;;5016697;28;20030;-62
2023/12/19 04:11:09;;;;;;;1.60;1.05;;;1.80;99.90;;;;;;5016598;28;20022;-62
2023/12/19 04:13:37;;;;;;;4.30;1.40;;;1.70;99.90;;;;;;5016545;28;20092;-62
2023/12/19 04:16:03;;;;;;;1.92;1.00;;;1.70;99.90;;;;;;5016539;28;20037;-62
2023/12/19 04:18:29;;;;;;;3.67;1.45;;;1.70;99.90;;;;;;5015191;28;20030;-62
2023/12/19 04:23:38;;;;;;;6.43;1.23;;;1.60;99.90;;;;;;5015536;28;20045;-62
2023/12/19 04:26:04;;;;;;;6.25;1.20;;;1.50;99.90;;;;;;5015875;28;20022;-62
2023/12/19 04:28:30;;;;;;;2.35;1.10;;;1.50;99.90;;;;;;5016555;28;20514;-63
2023/12/19 04:30:56;;;;;;;1.70;0.82;;;1.50;99.90;;;;;;5016336;28;20057;-62
2023/12/19 04:33:21;;;;;;;3.33;1.40;;;1.40;99.90;;;;;;5016188;28;20038;-62
2023/12/19 04:35:47;;;;;;;4.90;1.30;;;1.40;99.90;;;;;;5014980;28;20459;-62
2023/12/19 04:38:12;;;;;;;3.33;1.00;;;1.30;99.90;;;;;;5016208;28;20076;-62
2023/12/19 04:40:38;;;;;;;1.58;1.10;;;1.30;99.90;;;;;;5015844;28;20030;-63
2023/12/19 04:43:03;;;;;;;3.58;1.77;;;1.30;99.90;;;;;;5016189;28;20034;-62
2023/12/19 04:45:29;;;;;;;3.58;2.00;;;1.30;99.90;;;;;;5016864;28;20034;-63
2023/12/19 04:47:55;;;;;;;4.03;1.60;;;1.30;99.90;;;;;;5017831;28;20428;-62
2023/12/19 04:50:20;;;;;;;2.47;1.67;;;1.20;99.90;;;;;;5016960;28;20028;-63
2023/12/19 04:52:46;;;;;;;3.45;1.92;;;1.20;99.90;;;;;;5034272;28;20147;-66
2023/12/19 04:55:11;;;;;;;3.53;1.90;;;1.20;99.90;;;;;;5036478;28;20047;-62
2023/12/19 04:57:37;;;;;;;4.10;1.67;;;1.20;99.90;;;;;;5035909;28;20373;-62
2023/12/19 05:00:04;;;;;;;3.90;1.70;;;1.20;99.90;;;;;;5017884;28;20037;-62
2023/12/19 05:02:30;;;;;;;1.80;1.10;;;1.20;99.90;;;;;;5035452;28;20437;-62
2023/12/19 05:04:56;;;;;;;1.67;1.33;;;1.20;99.90;;;;;;5018403;28;20371;-63
2023/12/19 05:07:23;;;;;;;1.67;1.20;;;1.20;99.90;;;;;;5036093;28;20022;-62
2023/12/19 05:09:48;;;;;;;1.98;1.20;;;1.30;99.90;;;;;;5035980;28;20022;-62
2023/12/19 05:12:14;;;;;;;7.28;1.80;;;1.30;99.90;;;;;;5035280;28;20128;-62
2023/12/19 05:14:39;;;;;;;1.63;1.27;;;1.30;99.90;;;;;;5035560;28;20060;-63
2023/12/19 05:17:06;;;;;;;4.40;1.58;;;1.40;99.90;;;;;;5036134;28;20021;-62
2023/12/19 05:19:31;;;;;;;2.33;1.38;;;1.40;99.90;;;;;;5020436;28;20030;-63
2023/12/19 05:21:57;;;;;;;3.03;1.88;;;1.50;99.90;;;;;;5021473;28;20367;-69
2023/12/19 05:24:23;;;;;;;2.63;1.55;;;1.60;99.90;;;;;;5038884;28;20029;-65
2023/12/19 05:26:48;;;;;;;19.58;2.17;;;1.80;99.90;;;;;;5038932;28;20026;-66
2023/12/19 05:29:14;;;;;;;12.25;1.80;;;1.60;99.90;;;;;;5021362;28;20029;-67
2023/12/19 05:31:39;;;;;;;15.23;2.45;;;1.60;99.90;;;;;;5020600;28;20033;-67
2023/12/19 05:34:05;;;;;;;3.85;1.70;;;1.50;99.90;;;;;;5037939;28;20084;-64
2023/12/19 05:36:33;;;;;;;7.95;1.75;;;1.50;99.90;;;;;;5020531;28;20029;-70
2023/12/19 05:39:00;;;;;;;4.68;1.80;;;1.50;99.90;;;;;;5035654;28;20029;-64
2023/12/19 05:41:26;;;;;;;5.90;3.10;;;1.30;99.90;;;;;;5034834;28;20026;-64
2023/12/19 05:43:56;;;;;;;5.05;2.88;;;1.20;99.90;;;;;;5035009;28;20112;-64
2023/12/19 05:46:21;;;;;;;4.13;2.05;;;1.20;99.90;;;;;;5034666;28;20028;-63
2023/12/19 05:48:47;;;;;;;5.20;2.78;;;1.20;99.90;;;;;;5016938;28;20124;-63
2023/12/19 05:51:14;;;;;;;6.70;2.05;;;1.10;99.90;;;;;;5016900;28;20053;-65
2023/12/19 05:53:40;;;;;;;5.20;2.67;;;1.10;99.90;;;;;;5016679;28;20029;-64
2023/12/19 05:56:10;;;;;;;3.50;2.22;;;1.10;99.90;;;;;;5016896;28;20032;-64
2023/12/19 05:58:36;;;;;;;9.93;2.40;;;1.10;99.90;;;;;;5034630;28;20037;-64
2023/12/19 06:01:01;;;;;;;3.72;2.25;;;1.00;99.90;;;;;;5017119;28;20021;-64
2023/12/19 06:03:27;;;;;;;15.38;3.25;;;0.90;99.90;;;;;;5035530;28;20033;-64
2023/12/19 06:05:53;;;;;;;8.73;2.90;;;0.90;99.90;;;;;;5035235;28;20022;-64
2023/12/19 06:08:19;;;;;;;7.93;2.55;;;0.90;99.90;;;;;;5035568;28;20096;-66
2023/12/19 06:10:45;;;;;;;6.97;2.33;;;0.90;99.90;;;;;;5035722;28;20091;-64
2023/12/19 06:13:11;;;;;;;6.47;2.10;;;0.80;99.90;;;;;;5034318;28;20451;-64
2023/12/19 06:15:36;;;;;;;8.10;2.35;;;0.80;99.90;;;;;;5034657;28;20037;-64
2023/12/19 06:18:02;;;;;;;12.65;2.78;;;0.80;99.90;;;;;;5034394;28;20033;-64
2023/12/19 06:20:27;;;;;;;5.60;2.97;;;0.70;99.90;;;;;;5034078;28;20030;-64
2023/12/19 06:22:53;;;;;;;8.68;2.85;;;0.70;99.90;;;;;;5016356;28;20036;-64
2023/12/19 06:25:19;;;;;;;4.63;2.53;;;2.00;99.90;;;;;;5034007;28;20368;-66
2023/12/19 06:27:44;;;;;;;8.48;2.85;;;0.60;99.90;;;;;;5016595;28;20022;-64
2023/12/19 06:30:11;;;;;;;8.98;3.05;;;0.70;99.90;;;;;;5034011;28;20048;-64
2023/12/19 06:32:36;;;;;;;8.45;3.53;;;0.60;99.90;;;;;;5016401;28;20128;-64
2023/12/19 06:35:07;;;;;;;13.55;3.78;;;0.60;99.90;;;;;;5016100;28;20117;-64
2023/12/19 06:37:34;;;;;;;13.05;2.92;;;0.60;99.90;;;;;;5034108;28;20419;-64
2023/12/19 06:39:59;;;;;;;9.57;3.08;;;0.60;99.90;;;;;;5016143;28;20112;-64
2023/12/19 06:42:25;;;;;;;5.22;2.95;;;0.60;99.90;;;;;;5033788;28;20053;-64
2023/12/19 06:44:51;;;;;;;6.75;3.05;;;0.60;99.90;;;;;;5016040;28;20114;-63
2023/12/19 06:47:17;;;;;;;11.98;4.07;;;0.60;99.90;;;;;;5033104;28;20029;-64
2023/12/19 06:49:43;;;;;;;6.95;3.47;;;1.60;99.90;;;;;;5033748;28;20034;-64
2023/12/19 06:52:09;;;;;;;12.70;4.22;;;0.60;99.90;;;;;;5033727;28;20060;-64
2023/12/19 06:54:38;;;;;;;8.45;3.40;;;0.60;99.90;;;;;;5015932;28;20136;-64
2023/12/19 06:57:04;;;;;;;8.07;3.30;;;0.60;99.90;;;;;;5016070;28;20410;-64
2023/12/19 06:59:32;;;;;;;6.57;3.30;;;0.60;99.90;;;;;;5015704;28;20021;-64
2023/12/19 07:01:58;;;;;;;5.03;2.90;;;0.60;99.90;;;;;;5033630;28;20030;-64
2023/12/19 07:04:24;;;;;;;8.45;4.05;;;0.60;99.90;;;;;;5015856;28;20025;-64
2023/12/19 07:06:49;;;;;;;9.68;4.07;;;0.60;99.90;;;;;;5033243;28;20079;-64
2023/12/19 07:09:15;;;;;;;14.73;4.00;;;0.60;99.90;;;;;;5033636;28;20025;-64
2023/12/19 07:11:41;;;;;;;11.73;4.40;;;0.60;99.90;;;;;;5033877;28;20029;-64
2023/12/19 07:14:07;;;;;;;14.65;5.55;;;0.70;99.90;;;;;;5033641;28;20034;-64
2023/12/19 07:16:33;;;;;;;16.65;6.43;;;1.40;99.90;;;;;;5015910;28;20022;-64
2023/12/19 07:19:00;;;;;;;10.90;5.82;;;0.80;99.90;;;;;;5033538;28;20371;-64
2023/12/19 07:21:27;;;;;;;13.93;5.53;;;0.80;99.90;;;;;;5033589;28;20029;-64
2023/12/19 07:23:54;;;;;;;11.57;5.90;;;1.70;99.90;;;;;;5033148;28;20467;-64
2023/12/19 07:26:27;;;;;;;16.90;6.60;;;0.70;99.90;;;;;;5033433;28;20475;-64
2023/12/19 07:28:57;;;;;;;19.75;6.65;;;0.80;99.90;;;;;;5015595;28;20360;-64
2023/12/19 07:31:24;;;;;;;12.13;6.30;;;1.30;99.90;;;;;;5033372;28;20164;-64
2023/12/19 07:33:59;;;;;;;13.63;6.20;;;0.90;99.90;;;;;;5033462;28;20033;-64
2023/12/19 07:36:26;;;;;;;12.73;7.03;;;1.00;99.90;;;;;;5015720;28;20112;-64
2023/12/19 07:38:52;;;;;;;14.52;6.47;;;1.00;99.90;;;;;;5033896;28;20036;-64
2023/12/19 07:41:18;;;;;;;10.75;5.30;;;1.00;99.90;;;;;;5034704;28;20032;-64
2023/12/19 07:43:44;;;;;;;11.40;6.40;;;1.00;99.90;;;;;;5035321;28;20029;-64
2023/12/19 07:46:13;;;;;;;19.50;6.28;;;2.20;99.90;;;;;;5017150;28;20026;-64
2023/12/19 07:48:39;;;;;;;23.17;6.47;;;1.20;99.90;;;;;;5034210;28;20037;-64
2023/12/19 07:51:05;;;;;;;14.52;7.10;;;1.20;99.90;;;;;;5015837;28;20111;-64
2023/12/19 07:53:31;;;;;;;11.57;5.28;;;1.20;99.90;;;;;;5033186;28;20065;-64
2023/12/19 07:56:03;;;;;;;15.38;5.38;;;1.80;99.90;;;;;;5015575;28;20391;-64
2023/12/19 07:58:30;;;;;;;8.52;4.63;;;1.30;99.90;;;;;;5034160;28;20113;-64
2023/12/19 08:00:55;;;;;;;11.32;4.28;;;1.30;99.90;;;;;;5018922;28;20025;-64
2023/12/19 08:03:28;;;;;;;9.63;4.85;;;1.60;99.90;;;;;;5036985;28;20029;-64
2023/12/19 08:05:56;;;;;;;13.05;5.00;;;1.40;99.90;;;;;;5036918;28;20025;-64
2023/12/19 08:08:22;;;;;;;14.75;4.63;;;1.40;99.90;;;;;;5018486;28;20037;-64
2023/12/19 08:10:48;;;;;;;6.78;3.22;;;1.50;99.90;;;;;;5036552;28;20030;-64
2023/12/19 08:13:14;;;;;;;9.85;4.25;;;1.90;99.90;;;;;;5018766;28;20038;-64
2023/12/19 08:15:42;;;;;;;22.92;4.95;;;1.70;99.90;;;;;;5036491;28;20030;-64
2023/12/19 08:18:09;;;;;;;9.57;3.95;;;1.80;99.90;;;;;;5018578;28;20032;-64
2023/12/19 08:20:35;;;;;;;13.05;4.07;;;1.90;99.90;;;;;;5018567;28;20036;-64
2023/12/19 08:23:01;;;;;;;18.20;5.97;;;2.10;99.90;;;;;;5018512;28;20025;-64
2023/12/19 08:25:28;;;;;;;13.82;5.70;;;2.30;99.90;;;;;;5036588;28;20045;-66
2023/12/19 08:27:54;;;;;;;16.70;4.90;;;2.80;99.90;;;;;;5018428;28;20026;-64
2023/12/19 08:30:22;;;;;;;14.90;5.30;;;3.50;99.90;;;;;;5018321;28;20037;-64
2023/12/19 08:32:48;;;;;;;10.43;2.87;;;4.40;99.90;;;;;;5017899;28;20041;-64
2023/12/19 08:35:13;;;;;;;10.50;3.92;;;5.50;99.90;;;;;;5035742;28;20033;-65
2023/12/19 08:37:39;;;;;;;7.13;2.10;;;6.70;99.90;;;;;;5035973;28;20032;-65
2023/12/19 08:40:06;;;;;;;2.83;1.75;;;7.60;99.90;;;;;;5018255;28;20033;-65
2023/12/19 08:42:32;;;;;;;7.28;3.80;;;8.40;99.90;;;;;;5018313;28;20082;-65
2023/12/19 08:44:58;;;;;;;5.53;2.80;;;9.10;99.90;;;;;;5036754;28;20026;-65
2023/12/19 08:47:23;;;;;;;6.43;3.20;;;9.80;99.20;;;;;;5035906;28;20021;-65
2023/12/19 08:49:52;;;;;;;10.55;3.70;;;10.30;96.80;;;;;;5035663;28;20022;-65
2023/12/19 08:52:19;;;;;;;10.57;3.83;;;10.80;95.60;;;;;;5035506;28;20073;-65
2023/12/19 08:54:44;;;;;;;10.55;3.00;;;11.30;93.20;;;;;;5017562;28;20195;-65
2023/12/19 08:57:10;;;;;;;13.63;4.13;;;11.60;92.30;;;;;;5035541;28;20102;-65
2023/12/19 08:59:36;;;;;;;8.65;4.68;;;12.00;91.40;;;;;;5017653;28;20118;-65
2023/12/19 09:02:01;;;;;;;5.25;2.80;;;12.20;89.80;;;;;;5035228;28;20030;-65
2023/12/19 09:04:27;;;;;;;6.35;3.45;;;12.70;86.70;;;;;;5035260;28;20033;-65
2023/12/19 09:06:52;;;;;;;6.35;2.42;;;13.00;84.90;;;;;;5035168;28;20029;-65
2023/12/19 09:09:18;;;;;;;8.95;3.95;;;13.50;81.60;;;;;;5017539;28;20053;-65
2023/12/19 09:11:44;;;;;;;8.10;3.88;;;13.90;79.80;;;;;;5034729;28;20112;-65
2023/12/19 09:14:12;;;;;;;8.98;4.28;;;14.00;79.10;;;;;;5035199;28;20100;-65
2023/12/19 09:16:38;;;;;;;7.10;3.20;;;14.10;76.80;;;;;;5017359;28;20033;-65
2023/12/19 09:19:04;;;;;;;7.57;3.33;;;14.10;75.90;;;;;;5035084;28;20033;-65
2023/12/19 09:21:31;;;;;;;7.10;2.58;;;14.30;75.30;;;;;;5035104;28;20112;-65
2023/12/19 09:23:56;;;;;;;4.38;2.42;;;14.60;73.60;;;;;;5017288;28;20025;-65
2023/12/19 09:26:22;;;;;;;3.55;1.42;;;14.90;71.90;;;;;;5034940;28;20029;-65
2023/12/19 09:28:48;;;;;;;12.15;2.80;;;15.10;70.70;;;;;;5034905;28;20025;-65
2023/12/19 09:31:14;;;;;;;7.60;2.05;;;15.20;69.70;;;;;;5017079;28;20025;-65
2023/12/19 09:33:40;;;;;;;5.72;1.95;;;15.50;68.80;;;;;;5034572;28;20044;-65
2023/12/19 09:36:09;;;;;;;6.47;2.05;;;15.50;67.80;;;;;;5034915;28;20040;-65
2023/12/19 09:38:37;;;;;;;4.78;3.20;;;15.60;67.00;;;;;;5017180;28;20049;-65
2023/12/19 09:41:03;;;;;;;11.10;4.63;;;15.60;65.30;;;;;;5034655;28;20032;-65
2023/12/19 09:43:33;;;;;;;14.05;4.97;;;15.90;65.10;;;;;;5016857;28;20029;-65
2023/12/19 09:46:02;;;;;;;9.68;4.80;;;16.30;64.30;;;;;;5034594;28;20045;-66
2023/12/19 09:48:33;;;;;;;12.45;4.90;;;16.40;63.30;;;;;;5034531;28;20025;-65
2023/12/19 09:51:05;;;;;;;12.30;5.03;;;16.40;63.80;;;;;;5016928;28;20585;-65
2023/12/19 09:53:32;;;;;;;35.20;5.55;;;16.70;62.80;;;;;;5034426;28;20502;-66
2023/12/19 09:56:01;;;;;;;15.85;4.50;;;16.40;62.90;;;;;;5016670;28;20106;-65
2023/12/19 09:58:30;;;;;;;11.70;3.65;;;16.00;62.20;;;;;;5034346;28;20104;-66
2023/12/19 10:00:59;;;;;;;4.82;2.72;;;15.60;64.40;;;;;;5034610;28;20033;-66
2023/12/19 10:03:28;;;;;;;;;;;15.00;64.60;;;;;;5034429;28;20028;-66
2023/12/19 10:05:54;;;;;;;7.10;2.00;;;14.50;65.60;;;;;;5034290;28;19905;-66
2023/12/19 10:08:21;;;;;;;6.78;2.10;;;14.20;65.90;;;;;;5034619;28;20042;-65
2023/12/19 10:10:54;;;;;;;7.07;2.08;;;14.10;66.30;;;;;;5034385;28;20057;-65
2023/12/19 10:13:31;;;;;;;3.67;1.50;;;14.10;66.60;;;;;;5034213;28;20029;-65
2023/12/19 10:16:08;;;;;;;4.15;1.05;;;14.00;66.80;;;;;;5016412;28;20055;-65
2023/12/19 10:18:39;;;;;;;5.40;0.80;;;14.10;66.80;;;;;;5016084;28;20033;-65
2023/12/19 10:21:08;;;;;;;5.45;1.00;;;14.20;67.10;;;;;;5034017;28;20108;-65
2023/12/19 10:23:37;;;;;;;3.10;0.95;;;14.30;67.40;;;;;;5015122;28;20042;-65
2023/12/19 10:26:04;;;;;;;5.50;0.82;;;14.60;66.00;;;;;;5034146;28;20069;-65
2023/12/19 10:28:32;;;;;;;5.72;0.85;;;14.70;65.60;;;;;;5034137;28;20096;-66
2023/12/19 10:31:16;;;;;;;20.77;1.40;;;15.00;66.40;;;;;;5016422;28;20541;-66
2023/12/19 10:33:45;;;;;;;6.18;0.85;;;14.80;64.90;;;;;;5034074;28;20029;-66
2023/12/19 10:36:26;;;;;;;3.25;0.75;;;14.60;66.80;;;;;;5033788;28;20065;-65
2023/12/19 10:38:59;;;;;;;3.35;0.50;;;14.60;67.40;;;;;;5016495;28;20049;-66
2023/12/19 10:41:29;;;;;;;0.60;0.50;;;14.60;66.10;;;;;;5033911;28;20030;-65
2023/12/19 10:43:57;;;;;;;9.93;1.23;;;14.50;66.70;;;;;;5015914;28;20148;-65
2023/12/19 10:46:28;;;;;;;1.13;0.50;;;14.50;65.80;;;;;;5033902;28;20036;-65
2023/12/19 10:48:58;;;;;;;4.45;0.60;;;14.70;67.00;;;;;;5033966;28;20072;-65
2023/12/19 10:51:24;;;;;;;1.50;0.70;;;14.80;67.00;;;;;;5033775;28;20050;-65
2023/12/19 10:53:58;;;;;;;2.47;0.30;;;15.20;65.40;;;;;;5015810;28;20095;-65
2023/12/19 10:56:25;;;;;;;5.47;0.65;;;16.00;65.60;;;;;;5033514;28;20029;-65
2023/12/19 10:59:00;;;;;;;4.75;1.38;;;16.90;62.90;;;;;;5033563;28;20065;-65
2023/12/19 11:01:28;;;;;;;5.85;0.70;;;17.60;59.70;;;;;;5033244;28;20033;-65
2023/12/19 11:03:59;;;;;;;1.90;0.52;;;18.30;57.30;;;;;;5015863;28;20026;-65
2023/12/19 11:06:32;;;;;;;2.70;0.60;;;18.60;55.50;;;;;;5033626;28;20506;-65
2023/12/19 11:09:05;;;;;;;3.35;0.38;;;19.30;56.20;;;;;;5015737;28;20526;-65
2023/12/19 11:11:40;;;;;;;6.60;1.05;;;19.80;52.70;;;;;;5015884;28;20057;-65
2023/12/19 11:14:06;;;;;;;6.35;0.80;;;20.30;51.00;;;;;;5033441;28;20120;-65
2023/12/19 11:16:51;;;;;;;4.10;1.15;;;20.80;51.50;;;;;;5015605;28;20117;-65
2023/12/19 11:19:32;;;;;;;7.65;0.82;;;21.10;49.30;;;;;;5033449;28;20033;-66
2023/12/19 11:22:13;;;;;;;11.65;1.13;;;21.40;49.00;;;;;;5015854;28;20036;-65
2023/12/19 11:24:47;;;;;;;3.15;0.90;;;21.70;45.90;;;;;;5015703;28;20029;-66
2023/12/19 11:27:16;;;;;;;14.50;1.40;;;21.60;45.00;;;;;;5015673;28;20030;-65
2023/12/19 11:29:56;;;;;;;2.78;0.68;;;21.60;46.40;;;;;;5015275;28;20455;-66
2023/12/19 11:32:28;;;;;;;3.92;0.52;;;21.80;45.90;;;;;;5033429;28;20546;-66
2023/12/19 11:34:54;;;;;;;9.52;0.95;;;22.30;43.30;;;;;;5036148;28;20112;-66
2023/12/19 11:37:21;;;;;;;1.38;0.50;;;22.50;43.80;;;;;;5037171;28;20079;-66
2023/12/19 11:39:47;;;;;;;2.42;0.60;;;22.50;39.20;;;;;;5019483;28;20029;-66
2023/12/19 11:42:51;;;;;;;1.48;0.30;;;22.40;41.70;;;;;;5037095;28;20033;-66
2023/12/19 11:45:17;;;;;;;1.42;0.38;;;22.70;38.00;;;;;;4956242;29;20032;-66
2023/12/19 11:47:49;;;;;;;0.30;0.28;;;22.90;37.40;;;;;;4956523;29;20031;-66
2023/12/19 11:50:39;;;;;;;0.77;0.35;;;22.90;35.50;;;;;;4956589;29;20086;-65
2023/12/19 11:53:08;;;;;;;0.10;0.10;;;22.70;36.20;;;;;;4956061;29;20062;-65
2023/12/19 11:55:34;;;;;;;4.45;0.63;;;22.40;35.30;;;;;;4956166;29;20086;-65
2023/12/19 11:58:09;;;;;;;3.65;0.75;;;22.10;36.40;;;;;;4940574;29;20433;-66
2023/12/19 12:00:35;;;;;;;3.55;0.45;;;22.40;36.50;;;;;;4956225;29;20064;-65
2023/12/19 12:03:07;;;;;;;1.48;0.40;;;22.80;35.50;;;;;;4956430;29;20078;-66
2023/12/19 12:05:34;;;;;;;1.50;0.45;;;22.90;34.50;;;;;;4956319;29;20110;-66
2023/12/19 12:07:59;;;;;;;3.95;0.55;;;22.60;35.20;;;;;;4955999;28;20032;-66
2023/12/19 12:10:26;;;;;;;2.60;0.38;;;22.90;35.30;;;;;;4939891;29;20039;-65
2023/12/19 12:12:54;;;;;;;2.78;0.73;;;23.00;34.80;;;;;;4939826;29;20057;-66
2023/12/19 12:15:22;;;;;;;4.68;0.70;;;23.10;34.90;;;;;;4973164;28;20038;-66
2023/12/19 12:17:48;;;;;;;2.10;0.30;;;23.00;34.60;;;;;;5018611;28;20060;-66
2023/12/19 12:20:14;;;;;;;2.05;0.30;;;22.50;33.40;;;;;;5035935;28;20034;-65
2023/12/19 12:22:40;;;;;;;0.70;0.30;;;21.50;35.00;;;;;;5018907;28;20034;-65
2023/12/19 12:25:07;;;;;;;2.83;0.70;;;21.60;35.60;;;;;;5036119;28;20033;-66
2023/12/19 12:27:33;;;;;;;1.75;0.22;;;22.30;37.30;;;;;;5018396;28;20026;-66
2023/12/19 12:30:02;;;;;;;1.27;0.40;;;22.90;34.10;;;;;;5035992;28;20087;-66
2023/12/19 12:32:27;;;;;;;;;;;23.20;34.90;;;;;;5018558;28;20095;-66
2023/12/19 12:34:53;;;;;;;1.95;0.50;;;23.20;34.10;;;;;;5036145;28;19905;-66
2023/12/19 12:37:20;;;;;;;0.73;0.43;;;22.90;33.50;;;;;;5035598;28;20022;-66
2023/12/19 12:39:46;;;;;;;0.70;0.50;;;22.40;33.80;;;;;;5035880;28;20026;-66
2023/12/19 12:42:15;;;;;;;1.95;0.40;;;21.80;33.60;;;;;;5017903;28;20042;-66
2023/12/19 12:44:41;;;;;;;0.52;0.40;;;20.80;33.50;;;;;;5035210;28;20021;-65
2023/12/19 12:47:08;;;;;;;1.65;0.30;;;20.10;34.70;;;;;;5017470;28;20026;-65
2023/12/19 12:49:35;;;;;;;0.90;0.50;;;19.90;35.10;;;;;;5018325;28;20052;-66
2023/12/19 12:52:01;;;;;;;3.28;0.98;;;19.90;35.20;;;;;;5035634;28;20049;-65
2023/12/19 12:54:28;;;;;;;0.85;0.40;;;19.60;34.40;;;;;;5018022;28;20079;-65